createdAt,value
2022-10-06T00:00:24.808Z,99338.44
2022-10-06T00:02:26.598Z,99340.13
2022-10-06T00:04:28.298Z,99338.44
2022-10-06T00:06:29.942Z,99338.44
2022-10-06T00:08:32.829Z,99334.63
2022-10-06T00:10:34.494Z,99334.75
2022-10-06T00:12:47.034Z,99337.44
2022-10-06T00:14:48.741Z,99337.44
2022-10-06T00:16:50.487Z,99339.13
2022-10-06T00:18:52.210Z,99341.13
2022-10-06T00:20:57.430Z,99341.25
2022-10-06T00:22:59.103Z,99348.94
2022-10-06T00:25:00.800Z,99346.50
2022-10-06T00:27:02.444Z,99350.88
2022-10-06T00:29:04.144Z,99352.13
2022-10-06T00:31:05.994Z,99359.22
2022-10-06T00:33:07.721Z,99350.72
2022-10-06T00:35:09.380Z,99352.41
2022-10-06T00:37:11.045Z,99348.72
2022-10-06T00:39:12.799Z,99341.53
2022-10-06T00:41:15.542Z,99347.03
2022-10-06T00:43:55.195Z,99338.25
2022-10-06T00:45:56.971Z,99339.09
2022-10-06T00:48:00.926Z,99338.25
2022-10-06T00:50:02.657Z,99331.91
2022-10-06T00:52:16.850Z,99335.56
2022-10-06T00:54:18.580Z,99333.88
2022-10-06T00:56:20.349Z,99345.59
2022-10-06T00:58:22.013Z,99336.41
2022-10-06T01:00:23.670Z,99343.63
2022-10-06T01:02:27.808Z,99342.50
2022-10-06T01:04:36.602Z,99349.13
2022-10-06T01:07:04.657Z,99346.84
2022-10-06T01:09:06.384Z,99348.44
2022-10-06T01:11:12.183Z,99344.63
2022-10-06T01:13:13.912Z,99337.41
2022-10-06T01:15:16.278Z,99345.47
2022-10-06T01:17:27.332Z,99350.13
2022-10-06T01:19:31.906Z,99341.22
2022-10-06T01:21:43.423Z,99339.50
2022-10-06T01:23:45.111Z,99338.53
2022-10-06T01:25:46.883Z,99343.63
2022-10-06T01:27:49.670Z,99335.13
2022-10-06T01:29:54.491Z,99335.69
2022-10-06T01:31:56.252Z,99345.88
2022-10-06T01:33:57.994Z,99335.97
2022-10-06T01:35:59.687Z,99339.38
2022-10-06T01:38:01.437Z,99335.00
2022-10-06T01:40:03.262Z,99335.13
2022-10-06T01:42:05.231Z,99331.44
2022-10-06T01:44:07.036Z,99335.13
2022-10-06T01:46:08.737Z,99336.09
2022-10-06T01:48:10.484Z,99338.78
2022-10-06T01:50:12.223Z,99340.50
2022-10-06T01:52:13.909Z,99341.34
2022-10-06T01:54:15.554Z,99342.59
2022-10-06T01:56:17.335Z,99350.41
2022-10-06T01:58:19.017Z,99338.66
2022-10-06T02:00:20.759Z,99344.75
2022-10-06T02:02:22.476Z,99345.88
2022-10-06T02:04:24.194Z,99354.78
2022-10-06T02:06:25.972Z,99341.47
2022-10-06T02:08:28.102Z,99341.22
2022-10-06T02:10:30.092Z,99337.09
2022-10-06T02:12:32.062Z,99342.19
2022-10-06T02:14:33.775Z,99335.84
2022-10-06T02:16:35.448Z,99331.19
2022-10-06T02:18:37.190Z,99333.16
2022-10-06T02:20:38.886Z,99327.78
2022-10-06T02:22:40.627Z,99325.94
2022-10-06T02:24:42.379Z,99326.06
2022-10-06T02:26:44.074Z,99333.16
2022-10-06T02:28:46.426Z,99330.47
2022-10-06T02:30:48.213Z,99327.78
2022-10-06T02:32:49.886Z,99341.22
2022-10-06T02:34:51.577Z,99342.91
2022-10-06T02:36:53.336Z,99350.97
2022-10-06T02:38:55.046Z,99343.63
2022-10-06T02:40:56.749Z,99351.25
2022-10-06T02:42:58.449Z,99360.44
2022-10-06T02:45:00.166Z,99354.66
2022-10-06T02:47:01.887Z,99360.16
2022-10-06T02:49:03.745Z,99358.31
2022-10-06T02:51:11.032Z,99357.34
2022-10-06T02:53:12.689Z,99367.38
2022-10-06T02:55:14.332Z,99365.41
2022-10-06T02:57:15.979Z,99355.50
2022-10-06T02:59:17.801Z,99350.25
2022-10-06T03:01:28.723Z,99356.63
2022-10-06T03:03:31.226Z,99364.16
2022-10-06T03:05:32.892Z,99373.59
2022-10-06T03:07:34.576Z,99362.00
2022-10-06T03:09:36.253Z,99372.03
2022-10-06T03:11:39.692Z,99370.72
2022-10-06T03:13:41.391Z,99357.94
2022-10-06T03:15:43.203Z,99359.66
2022-10-06T03:17:48.845Z,99361.09
2022-10-06T03:19:50.624Z,99372.69
2022-10-06T03:21:52.311Z,99371.84
2022-10-06T03:25:57.057Z,99360.63
2022-10-06T03:27:58.796Z,99355.25
2022-10-06T03:30:00.816Z,99364.47
2022-10-06T03:32:02.483Z,99362.06
2022-10-06T03:34:04.293Z,99362.19
2022-10-06T03:36:07.713Z,99366.59
2022-10-06T03:38:09.367Z,99366.59
2022-10-06T03:40:11.053Z,99367.31
2022-10-06T03:42:12.768Z,99363.56
2022-10-06T03:44:14.529Z,99365.97
2022-10-06T03:46:17.750Z,99365.03
2022-10-06T03:48:19.424Z,99373.66
2022-10-06T03:50:21.161Z,99372.09
2022-10-06T03:52:26.041Z,99367.56
2022-10-06T03:54:27.922Z,99372.34
2022-10-06T03:56:33.889Z,99368.44
2022-10-06T03:58:36.766Z,99367.75
2022-10-06T04:00:38.517Z,99370.19
2022-10-06T04:02:40.210Z,99377.50
2022-10-06T04:04:41.891Z,99368.59
2022-10-06T04:06:43.855Z,99371.13
2022-10-06T04:08:48.434Z,99373.81
2022-10-06T04:10:50.209Z,99360.03
2022-10-06T04:12:51.870Z,99363.44
2022-10-06T04:14:56.590Z,99366.56
2022-10-06T04:17:01.613Z,99371.94
2022-10-06T04:19:05.038Z,99365.16
2022-10-06T04:21:06.696Z,99363.09
2022-10-06T04:23:08.900Z,99360.53
2022-10-06T04:25:10.636Z,99365.16
2022-10-06T04:27:12.342Z,99373.31
2022-10-06T04:29:14.310Z,99374.44
2022-10-06T04:31:16.832Z,99379.50
2022-10-06T04:33:18.612Z,99381.06
2022-10-06T04:35:20.367Z,99378.78
2022-10-06T04:37:22.083Z,99389.91
2022-10-06T04:39:23.719Z,99388.47
2022-10-06T04:41:27.032Z,99386.78
2022-10-06T04:43:28.805Z,99397.78
2022-10-06T04:45:30.505Z,99391.56
2022-10-06T04:47:32.390Z,99396.94
2022-10-06T04:49:34.100Z,99395.22
2022-10-06T04:51:35.726Z,99401.44
2022-10-06T04:53:37.397Z,99400.72
2022-10-06T04:55:39.118Z,99399.00
2022-10-06T04:57:40.822Z,99399.00
2022-10-06T04:59:42.530Z,99395.47
2022-10-06T05:01:44.412Z,99395.63
2022-10-06T05:03:46.559Z,99388.69
2022-10-06T05:05:48.245Z,99386.97
2022-10-06T05:07:49.994Z,99390.25
2022-10-06T05:09:51.729Z,99385.84
2022-10-06T05:11:53.450Z,99387.81
2022-10-06T05:13:56.227Z,99394.91
2022-10-06T05:16:01.567Z,99397.81
2022-10-06T05:18:03.645Z,99393.31
2022-10-06T05:20:05.722Z,99397.81
2022-10-06T05:22:07.378Z,99398.31
2022-10-06T05:24:09.059Z,99396.59
2022-10-06T05:26:12.067Z,99393.44
2022-10-06T05:28:13.839Z,99392.59
2022-10-06T05:30:15.533Z,99393.91
2022-10-06T05:32:17.220Z,99391.22
2022-10-06T05:34:18.952Z,99395.63
2022-10-06T05:36:22.011Z,99397.34
2022-10-06T05:38:23.667Z,99393.91
2022-10-06T05:40:25.426Z,99405.53
2022-10-06T05:42:29.627Z,99397.47
2022-10-06T05:44:31.624Z,99398.31
2022-10-06T05:46:33.461Z,99399.28
2022-10-06T05:48:35.094Z,99403.69
2022-10-06T05:50:36.854Z,99403.81
2022-10-06T05:52:38.573Z,99398.91
2022-10-06T05:54:40.293Z,99405.28
2022-10-06T05:56:41.965Z,99401.97
2022-10-06T05:58:45.600Z,99405.53
2022-10-06T06:00:47.269Z,99395.88
2022-10-06T06:02:49.094Z,99411.75
2022-10-06T06:04:50.810Z,99409.19
2022-10-06T06:06:52.505Z,99409.78
2022-10-06T06:08:56.127Z,99409.06
2022-10-06T06:11:05.729Z,99402.84
2022-10-06T06:13:07.384Z,99412.00
2022-10-06T06:15:09.455Z,99409.31
2022-10-06T06:17:11.180Z,99408.59
2022-10-06T06:19:13.336Z,99401.25
2022-10-06T06:21:15.055Z,99398.72
2022-10-06T06:23:16.698Z,99404.19
2022-10-06T06:25:18.408Z,99405.94
2022-10-06T06:27:20.050Z,99406.88
2022-10-06T06:29:21.762Z,99416.78
2022-10-06T06:31:25.132Z,99416.28
2022-10-06T06:33:26.865Z,99417.13
2022-10-06T06:35:28.488Z,99406.78
2022-10-06T06:37:30.182Z,99406.78
2022-10-06T06:39:31.925Z,99408.84
2022-10-06T06:41:37.694Z,99401.25
2022-10-06T06:43:39.414Z,99400.41
2022-10-06T06:45:41.159Z,99406.03
2022-10-06T06:47:42.877Z,99408.34
2022-10-06T06:49:44.487Z,99408.59
2022-10-06T06:51:46.453Z,99398.25
2022-10-06T06:53:48.138Z,99399.22
2022-10-06T06:55:50.063Z,99393.63
2022-10-06T06:57:51.732Z,99396.28
2022-10-06T06:59:53.448Z,99398.00
2022-10-06T07:01:55.196Z,99405.03
2022-10-06T07:03:58.234Z,99396.88
2022-10-06T07:06:07.636Z,99398.72
2022-10-06T07:08:09.363Z,99403.94
2022-10-06T07:10:11.179Z,99406.03
2022-10-06T07:12:12.836Z,99408.59
2022-10-06T07:14:14.582Z,99405.44
2022-10-06T07:16:18.014Z,99410.31
2022-10-06T07:18:19.686Z,99405.19
2022-10-06T07:20:21.407Z,99410.41
2022-10-06T07:22:24.451Z,99403.34
2022-10-06T07:24:26.126Z,99398.09
2022-10-06T07:26:27.814Z,99390.03
2022-10-06T07:28:29.532Z,99386.63
2022-10-06T07:30:31.241Z,99387.38
2022-10-06T07:32:32.881Z,99382.88
2022-10-06T07:34:34.571Z,99395.31
2022-10-06T07:36:36.362Z,99379.06
2022-10-06T07:38:38.282Z,99388.25
2022-10-06T07:40:46.378Z,99388.63
2022-10-06T07:42:52.522Z,99394.31
2022-10-06T07:44:54.611Z,99396.88
2022-10-06T07:46:56.704Z,99388.81
2022-10-06T07:48:58.330Z,99392.34
2022-10-06T07:50:59.992Z,99387.13
2022-10-06T07:53:01.757Z,99392.22
2022-10-06T07:55:03.743Z,99391.38
2022-10-06T07:57:05.404Z,99387.59
2022-10-06T07:59:07.103Z,99387.97
2022-10-06T08:01:10.703Z,99394.44
2022-10-06T08:03:13.158Z,99390.78
2022-10-06T08:05:14.931Z,99383.31
2022-10-06T08:07:16.831Z,99395.19
2022-10-06T08:09:18.509Z,99377.34
2022-10-06T08:11:20.365Z,99384.09
2022-10-06T08:13:22.062Z,99381.41
2022-10-06T08:15:23.742Z,99378.72
2022-10-06T08:17:25.491Z,99386.25
2022-10-06T08:19:27.275Z,99383.94
2022-10-06T08:21:30.456Z,99383.09
2022-10-06T08:23:32.157Z,99382.72
2022-10-06T08:25:33.835Z,99382.25
2022-10-06T08:27:36.163Z,99383.09
2022-10-06T08:29:37.866Z,99388.25
2022-10-06T08:31:39.651Z,99384.56
2022-10-06T08:33:45.537Z,99380.03
2022-10-06T08:35:47.229Z,99389.94
2022-10-06T08:37:48.953Z,99384.56
2022-10-06T08:39:51.433Z,99385.06
2022-10-06T08:41:53.127Z,99388.47
2022-10-06T08:44:26.075Z,99391.63
2022-10-06T08:46:32.883Z,99396.16
2022-10-06T08:48:34.515Z,99394.69
2022-10-06T08:51:05.997Z,99405.69
2022-10-06T08:53:15.483Z,99401.78
2022-10-06T08:55:46.807Z,99401.78
2022-10-06T08:57:57.468Z,99401.06
2022-10-06T08:59:59.199Z,99402.75
2022-10-06T09:02:01.113Z,99403.63
2022-10-06T09:04:03.466Z,99404.47
2022-10-06T09:06:12.388Z,99397.13
2022-10-06T09:08:50.925Z,99400.06
2022-10-06T09:10:52.476Z,99398.63
2022-10-06T09:13:03.081Z,99399.38
2022-10-06T09:15:41.994Z,99394.97
2022-10-06T09:17:46.836Z,99391.53
2022-10-06T09:19:58.633Z,99391.63
2022-10-06T09:22:00.484Z,99392.50
2022-10-06T09:24:06.547Z,99386.78
2022-10-06T09:26:15.155Z,99381.88
2022-10-06T09:28:16.863Z,99379.69
2022-10-06T09:30:18.886Z,99381.81
2022-10-06T09:32:22.065Z,99383.50
2022-10-06T09:34:29.421Z,99382.53
2022-10-06T09:36:31.560Z,99383.72
2022-10-06T09:38:54.431Z,99380.56
2022-10-06T09:40:56.131Z,99379.56
2022-10-06T09:42:57.883Z,99384.22
2022-10-06T09:45:23.025Z,99385.78
2022-10-06T09:47:30.707Z,99377.72
2022-10-06T09:49:32.349Z,99386.91
2022-10-06T09:51:34.074Z,99393.00
2022-10-06T09:53:37.769Z,99387.50
2022-10-06T09:56:01.326Z,99387.13
2022-10-06T09:58:04.014Z,99387.50
2022-10-06T10:00:28.593Z,99378.00
2022-10-06T10:02:33.988Z,99380.56
2022-10-06T10:04:37.940Z,99379.31
2022-10-06T10:06:39.655Z,99380.31
2022-10-06T10:08:41.324Z,99385.69
2022-10-06T10:11:07.984Z,99387.63
2022-10-06T10:13:23.832Z,99375.44
2022-10-06T10:15:34.083Z,99367.53
2022-10-06T10:17:45.727Z,99370.06
2022-10-06T10:19:52.226Z,99377.16
2022-10-06T10:21:54.135Z,99365.53
2022-10-06T10:23:59.153Z,99364.84
2022-10-06T10:26:45.057Z,99356.25
2022-10-06T10:29:23.713Z,99359.31
2022-10-06T10:31:42.863Z,99374.19
2022-10-06T10:33:59.503Z,99378.59
2022-10-06T10:36:13.380Z,99373.47
2022-10-06T10:38:24.407Z,99373.47
2022-10-06T10:40:29.330Z,99377.88
2022-10-06T10:42:37.886Z,99386.78
2022-10-06T10:44:43.256Z,99384.22
2022-10-06T10:46:49.825Z,99387.03
2022-10-06T10:48:57.353Z,99384.47
2022-10-06T10:51:33.086Z,99383.09
2022-10-06T10:53:40.320Z,99393.38
2022-10-06T10:55:45.899Z,99393.28
2022-10-06T10:57:47.629Z,99392.50
2022-10-06T11:00:09.149Z,99384.22
2022-10-06T11:02:20.737Z,99390.69
2022-10-06T11:04:22.532Z,99388.84
2022-10-06T11:06:27.013Z,99389.59
2022-10-06T11:09:00.333Z,99390.69
2022-10-06T11:11:04.489Z,99392.28
2022-10-06T11:13:27.328Z,99386.19
2022-10-06T11:15:52.649Z,99383.63
2022-10-06T11:17:54.949Z,99391.53
2022-10-06T11:20:14.651Z,99387.91
2022-10-06T11:22:46.788Z,99387.44
2022-10-06T11:25:11.103Z,99385.72
2022-10-06T11:27:22.385Z,99391.94
2022-10-06T11:29:52.969Z,99389.84
2022-10-06T11:32:07.694Z,99386.44
2022-10-06T11:34:09.627Z,99378.38
2022-10-06T11:36:15.121Z,99391.69
2022-10-06T11:38:30.283Z,99390.69
2022-10-06T11:40:56.720Z,99383.38
2022-10-06T11:43:39.884Z,99371.19
2022-10-06T11:45:55.281Z,99375.97
2022-10-06T11:48:25.224Z,99368.75
2022-10-06T11:50:32.970Z,99364.97
2022-10-06T11:52:35.143Z,99358.88
2022-10-06T11:54:39.836Z,99356.91
2022-10-06T11:56:41.488Z,99354.81
2022-10-06T11:58:52.226Z,99365.53
2022-10-06T12:00:53.944Z,99359.91
2022-10-06T12:02:55.744Z,99369.41
2022-10-06T12:05:28.620Z,99367.03
2022-10-06T12:07:57.198Z,99361.78
2022-10-06T12:10:27.838Z,99362.25
2022-10-06T12:12:29.424Z,99362.00
2022-10-06T12:17:19.454Z,99351.25
2022-10-06T12:19:52.001Z,99346.16
2022-10-06T12:22:07.513Z,99350.78
2022-10-06T12:24:32.602Z,99345.59
2022-10-06T12:26:54.489Z,99351.38
2022-10-06T12:29:19.700Z,99348.69
2022-10-06T12:31:38.503Z,99346.53
2022-10-06T12:33:41.361Z,99343.91
2022-10-06T12:35:43.157Z,99337.72
2022-10-06T12:37:48.970Z,99330.53
2022-10-06T12:39:53.268Z,99336.59
2022-10-06T12:42:01.294Z,99329.66
2022-10-06T12:44:03.000Z,99338.34
2022-10-06T12:46:12.377Z,99325.06
2022-10-06T12:48:24.749Z,99334.69
2022-10-06T12:50:26.543Z,99332.41
2022-10-06T12:52:50.693Z,99336.06
2022-10-06T12:54:59.548Z,99333.38
2022-10-06T12:57:02.948Z,99337.03
2022-10-06T12:59:19.970Z,99334.84
2022-10-06T13:01:21.761Z,99333.50
2022-10-06T13:03:24.575Z,99342.50
2022-10-06T13:05:26.292Z,99344.25
2022-10-06T13:07:29.701Z,99343.63
2022-10-06T13:09:31.475Z,99351.69
2022-10-06T13:11:33.455Z,99341.31
2022-10-06T13:13:35.177Z,99349.53
2022-10-06T13:15:36.856Z,99345.00
2022-10-06T13:17:54.445Z,99341.22
2022-10-06T13:19:56.346Z,99349.25
2022-10-06T13:22:02.335Z,99338.78
2022-10-06T13:24:04.009Z,99348.75
2022-10-06T13:26:07.596Z,99353.53
2022-10-06T13:28:43.946Z,99344.66
2022-10-06T13:30:53.302Z,99344.66
2022-10-06T13:32:55.133Z,99332.25
2022-10-06T13:34:56.985Z,99329.75
2022-10-06T13:36:59.324Z,99337.22
2022-10-06T13:39:03.943Z,99342.59
2022-10-06T13:41:30.193Z,99335.63
2022-10-06T13:43:35.113Z,99342.97
2022-10-06T13:45:42.402Z,99339.28
2022-10-06T13:47:43.995Z,99342.25
2022-10-06T13:49:54.982Z,99339.56
2022-10-06T13:51:58.122Z,99341.53
2022-10-06T13:54:01.779Z,99340.91
2022-10-06T13:56:03.661Z,99344.75
2022-10-06T13:58:08.619Z,99331.78
2022-10-06T14:00:14.859Z,99341.94
2022-10-06T14:02:19.823Z,99345.47
2022-10-06T14:04:21.790Z,99341.66
2022-10-06T14:06:23.497Z,99346.31
2022-10-06T14:08:27.614Z,99342.97
2022-10-06T14:10:31.486Z,99341.16
2022-10-06T14:12:34.094Z,99339.06
2022-10-06T14:14:35.836Z,99338.84
2022-10-06T14:16:37.565Z,99343.06
2022-10-06T14:18:45.519Z,99332.88
2022-10-06T14:20:50.496Z,99335.44
2022-10-06T14:22:52.250Z,99340.09
2022-10-06T14:24:54.825Z,99338.53
2022-10-06T14:27:01.711Z,99334.84
2022-10-06T14:29:03.946Z,99331.19
2022-10-06T14:31:10.749Z,99329.31
2022-10-06T14:33:15.450Z,99317.75
2022-10-06T14:35:17.315Z,99332.16
2022-10-06T14:37:19.128Z,99330.34
2022-10-06T14:39:20.914Z,99343.78
2022-10-06T14:41:23.700Z,99337.69
2022-10-06T14:43:25.478Z,99341.88
2022-10-06T14:45:27.375Z,99342.66
2022-10-06T14:47:29.104Z,99345.53
2022-10-06T14:49:30.905Z,99350.63
2022-10-06T14:51:36.627Z,99347.09
2022-10-06T14:53:38.683Z,99353.47
2022-10-06T14:55:40.494Z,99345.25
2022-10-06T14:57:42.203Z,99349.78
2022-10-06T14:59:43.863Z,99340.41
2022-10-06T15:01:45.842Z,99347.25
2022-10-06T15:03:51.933Z,99340.75
2022-10-06T15:05:53.751Z,99340.78
2022-10-06T15:07:55.412Z,99341.59
2022-10-06T15:09:57.066Z,99333.44
2022-10-06T15:11:59.375Z,99337.38
2022-10-06T15:14:01.256Z,99326.31
2022-10-06T15:16:02.970Z,99326.19
2022-10-06T15:18:04.915Z,99330.16
2022-10-06T15:20:06.875Z,99348.84
2022-10-06T15:22:08.616Z,99336.22
2022-10-06T15:24:13.306Z,99333.66
2022-10-06T15:26:15.298Z,99340.16
2022-10-06T15:28:18.679Z,99328.66
2022-10-06T15:30:23.098Z,99335.28
2022-10-06T15:32:25.058Z,99333.38
2022-10-06T15:34:28.229Z,99342.38
2022-10-06T15:36:30.848Z,99341.22
2022-10-06T15:38:35.237Z,99337.91
2022-10-06T15:40:36.821Z,99333.69
2022-10-06T15:42:38.619Z,99331.34
2022-10-06T15:44:40.583Z,99328.50
2022-10-06T15:46:44.187Z,99320.41
2022-10-06T15:48:46.087Z,99330.03
2022-10-06T15:50:48.054Z,99338.13
2022-10-06T15:52:49.680Z,99330.47
2022-10-06T15:54:51.378Z,99317.16
2022-10-06T15:56:54.797Z,99314.44
2022-10-06T15:58:56.769Z,99311.94
2022-10-06T16:00:58.447Z,99327.81
2022-10-06T16:03:00.329Z,99328.94
2022-10-06T16:05:02.531Z,99322.19
2022-10-06T16:07:07.559Z,99316.25
2022-10-06T16:09:10.805Z,99311.00
2022-10-06T16:11:12.505Z,99324.44
2022-10-06T16:13:14.732Z,99316.78
2022-10-06T16:15:16.431Z,99319.19
2022-10-06T16:17:18.916Z,99326.16
2022-10-06T16:19:20.854Z,99328.44
2022-10-06T16:21:22.806Z,99326.00
2022-10-06T16:23:25.064Z,99314.25
2022-10-06T16:25:27.069Z,99327.88
2022-10-06T16:27:33.197Z,99315.66
2022-10-06T16:29:35.204Z,99314.88
2022-10-06T16:31:36.986Z,99310.56
2022-10-06T16:33:39.017Z,99309.44
2022-10-06T16:35:40.704Z,99312.06
2022-10-06T16:37:42.633Z,99302.78
2022-10-06T16:39:44.439Z,99307.81
2022-10-06T16:41:46.435Z,99314.66
2022-10-06T16:43:49.551Z,99308.88
2022-10-06T16:46:02.511Z,99308.44
2022-10-06T16:48:04.912Z,99309.13
2022-10-06T16:50:07.452Z,99305.66
2022-10-06T16:52:09.359Z,99309.34
2022-10-06T16:54:12.919Z,99305.81
2022-10-06T16:56:28.520Z,99311.19
2022-10-06T16:58:47.080Z,99318.31
2022-10-06T17:00:56.758Z,99322.09
2022-10-06T17:02:58.568Z,99303.75
2022-10-06T17:05:00.326Z,99308.97
2022-10-06T17:07:02.425Z,99314.00
2022-10-06T17:09:04.064Z,99313.53
2022-10-06T17:11:12.954Z,99296.16
2022-10-06T17:13:14.850Z,99293.47
2022-10-06T17:15:17.331Z,99282.75
2022-10-06T17:17:19.354Z,99293.16
2022-10-06T17:19:22.686Z,99287.91
2022-10-06T17:21:45.014Z,99294.16
2022-10-06T17:23:46.756Z,99277.19
2022-10-06T17:25:58.600Z,99290.94
2022-10-06T17:28:00.578Z,99275.81
2022-10-06T17:30:02.452Z,99284.00
2022-10-06T17:32:04.285Z,99290.63
2022-10-06T17:34:10.872Z,99281.75
2022-10-06T17:36:16.449Z,99282.03
2022-10-06T17:38:18.611Z,99280.66
2022-10-06T17:40:20.526Z,99276.66
2022-10-06T17:42:22.333Z,99274.97
2022-10-06T17:44:24.402Z,99272.88
2022-10-06T17:46:26.455Z,99271.84
2022-10-06T17:48:28.321Z,99272.09
2022-10-06T17:50:30.066Z,99276.63
2022-10-06T17:52:31.950Z,99276.66
2022-10-06T17:54:33.868Z,99281.66
2022-10-06T17:56:35.776Z,99264.94
2022-10-06T17:58:40.911Z,99259.00
2022-10-06T18:00:42.786Z,99261.22
2022-10-06T18:02:45.409Z,99259.69
2022-10-06T18:04:47.506Z,99256.44
2022-10-06T18:06:51.807Z,99243.66
2022-10-06T18:08:54.334Z,99249.75
2022-10-06T18:10:59.669Z,99245.66
2022-10-06T18:13:01.606Z,99250.47
2022-10-06T18:15:03.537Z,99237.31
2022-10-06T18:17:05.298Z,99228.38
2022-10-06T18:19:11.845Z,99233.91
2022-10-06T18:21:13.821Z,99224.13
2022-10-06T18:23:16.346Z,99224.00
2022-10-06T18:25:18.028Z,99230.34
2022-10-06T18:27:19.854Z,99227.09
2022-10-06T18:29:23.152Z,99237.16
2022-10-06T18:31:24.933Z,99246.22
2022-10-06T18:38:17.309Z,99238.47
2022-10-06T18:40:18.999Z,99252.38
2022-10-06T18:42:20.839Z,99241.03
2022-10-06T18:44:22.520Z,99237.91
2022-10-06T18:46:24.420Z,99228.28
2022-10-06T18:48:26.216Z,99235.63
2022-10-06T18:50:28.071Z,99234.78
2022-10-06T18:52:29.766Z,99234.78
2022-10-06T18:54:31.423Z,99229.94
2022-10-06T18:56:34.826Z,99229.94
2022-10-06T18:58:40.434Z,99229.94
2022-10-06T19:00:42.449Z,99220.31
2022-10-06T19:02:48.325Z,99224.56
2022-10-06T19:04:50.405Z,99224.84
2022-10-06T19:06:53.860Z,99218.75
2022-10-06T19:08:57.284Z,99218.88
2022-10-06T19:11:05.445Z,99227.09
2022-10-06T19:13:07.342Z,99229.91
2022-10-06T19:15:09.259Z,99236.13
2022-10-06T19:17:11.481Z,99234.44
2022-10-06T19:19:15.095Z,99222.13
2022-10-06T19:21:16.857Z,99234.69
2022-10-06T19:23:18.649Z,99231.44
2022-10-06T19:25:20.377Z,99229.47
2022-10-06T19:27:22.906Z,99239.50
2022-10-06T19:29:26.271Z,99240.34
2022-10-06T19:31:28.233Z,99238.66
2022-10-06T19:33:30.642Z,99241.59
2022-10-06T19:35:32.428Z,99244.16
2022-10-06T19:37:34.201Z,99242.03
2022-10-06T19:39:39.251Z,99231.56
2022-10-06T19:41:41.355Z,99230.59
2022-10-06T19:43:43.144Z,99239.19
2022-10-06T19:45:46.331Z,99238.91
2022-10-06T19:47:48.260Z,99225.88
2022-10-06T19:49:49.935Z,99224.75
2022-10-06T19:51:51.742Z,99231.25
2022-10-06T19:53:53.493Z,99235.78
2022-10-06T19:56:01.518Z,99229.44
2022-10-06T19:58:03.250Z,99218.97
2022-10-06T20:00:06.334Z,99225.03
2022-10-06T20:02:08.140Z,99221.78
2022-10-06T20:04:09.960Z,99225.03
2022-10-06T20:06:13.099Z,99219.22
2022-10-06T20:08:14.841Z,99217.09
2022-10-06T20:10:16.639Z,99218.22
2022-10-06T20:12:23.636Z,99208.47
2022-10-06T20:14:26.595Z,99217.66
2022-10-06T20:16:28.437Z,99207.75
2022-10-06T20:18:34.013Z,99207.63
2022-10-06T20:20:35.792Z,99208.47
2022-10-06T20:22:37.513Z,99214.97
2022-10-06T20:24:39.177Z,99208.75
2022-10-06T20:26:41.719Z,99215.94
2022-10-06T20:28:44.492Z,99224.59
2022-10-06T20:30:46.383Z,99210.72
2022-10-06T20:32:48.098Z,99225.84
2022-10-06T20:34:49.782Z,99220.47
2022-10-06T20:36:55.693Z,99215.25
2022-10-06T20:38:58.101Z,99223.16
2022-10-06T20:40:59.813Z,99226.97
2022-10-06T20:43:01.511Z,99217.06
2022-10-06T20:45:03.407Z,99221.47
2022-10-06T20:47:05.204Z,99223.31
2022-10-06T20:49:11.556Z,99221.59
2022-10-06T20:51:13.269Z,99218.50
2022-10-06T20:53:14.960Z,99215.38
2022-10-06T20:55:16.667Z,99215.09
2022-10-06T20:57:18.431Z,99215.09
2022-10-06T20:59:21.150Z,99206.31
2022-10-06T21:01:23.049Z,99213.66
2022-10-06T21:03:24.792Z,99204.75
2022-10-06T21:05:26.474Z,99216.34
2022-10-06T21:07:28.239Z,99214.38
2022-10-06T21:09:29.867Z,99224.41
2022-10-06T21:11:31.496Z,99214.66
2022-10-06T21:13:33.127Z,99228.09
2022-10-06T21:15:34.954Z,99216.50
2022-10-06T21:17:36.641Z,99216.34
2022-10-06T21:19:38.256Z,99224.69
2022-10-06T21:21:40.067Z,99223.00
2022-10-06T21:23:43.558Z,99230.06
2022-10-06T21:25:45.322Z,99226.13
2022-10-06T21:27:47.211Z,99230.91
2022-10-06T21:29:49.045Z,99232.47
2022-10-06T21:31:50.784Z,99230.91
2022-10-06T21:33:52.716Z,99232.91
2022-10-06T21:36:01.268Z,99230.22
2022-10-06T21:38:02.939Z,99229.09
2022-10-06T21:40:05.001Z,99226.41
2022-10-06T21:42:06.698Z,99233.47
2022-10-06T21:44:15.626Z,99231.50
2022-10-06T21:46:28.080Z,99233.47
2022-10-06T21:48:30.369Z,99239.69
2022-10-06T21:50:32.077Z,99235.88
2022-10-06T21:52:33.760Z,99241.41
2022-10-06T21:54:35.503Z,99240.69
2022-10-06T21:56:37.445Z,99243.66
2022-10-06T21:58:39.116Z,99234.72
2022-10-06T22:00:40.793Z,99239.13
2022-10-06T22:02:42.578Z,99246.06
2022-10-06T22:04:44.296Z,99249.59
2022-10-06T22:06:46.026Z,99255.69
2022-10-06T22:08:47.721Z,99242.13
2022-10-06T22:10:49.481Z,99250.31
2022-10-06T22:12:51.173Z,99251.53
2022-10-06T22:14:52.904Z,99257.06
2022-10-06T22:16:54.618Z,99260.31
2022-10-06T22:18:56.342Z,99265.97
2022-10-06T22:20:58.165Z,99267.94
2022-10-06T22:23:04.053Z,99258.75
2022-10-06T22:25:06.868Z,99262.56
2022-10-06T22:27:08.639Z,99268.66
2022-10-06T22:29:12.682Z,99265.25
2022-10-06T22:31:14.982Z,99273.03
2022-10-06T22:33:16.861Z,99273.31
2022-10-06T22:35:18.534Z,99272.69
2022-10-06T22:37:20.212Z,99270.75
2022-10-06T22:39:21.971Z,99256.72
2022-10-06T22:41:23.788Z,99262.94
2022-10-06T22:43:25.487Z,99266.47
2022-10-06T22:45:27.209Z,99259.16
2022-10-06T22:47:29.012Z,99264.78
2022-10-06T22:49:30.735Z,99264.78
2022-10-06T22:51:33.428Z,99272.94
2022-10-06T22:53:35.237Z,99272.09
2022-10-06T22:55:36.894Z,99275.50
2022-10-06T22:57:38.680Z,99273.78
2022-10-06T22:59:40.402Z,99270.38
2022-10-06T23:01:42.125Z,99268.69
2022-10-06T23:03:43.861Z,99268.69
2022-10-06T23:05:58.815Z,99279.16
2022-10-06T23:08:00.510Z,99268.56
2022-10-06T23:10:02.200Z,99268.91
2022-10-06T23:12:03.996Z,99274.63
2022-10-06T23:14:05.678Z,99272.94
2022-10-06T23:16:12.077Z,99263.22
2022-10-06T23:18:13.996Z,99273.78
2022-10-06T23:20:15.822Z,99264.06
2022-10-06T23:22:17.542Z,99279.16
2022-10-06T23:24:19.279Z,99275.50
2022-10-06T23:26:21.325Z,99278.31
2022-10-06T23:28:23.154Z,99289.06
2022-10-06T23:30:24.854Z,99291.63
2022-10-06T23:32:26.636Z,99282.00
2022-10-06T23:34:28.601Z,99287.69
2022-10-06T23:36:30.328Z,99282.84
2022-10-06T23:38:32.046Z,99295.56
2022-10-06T23:40:33.732Z,99314.81
2022-10-06T23:42:35.384Z,99296.75
2022-10-06T23:44:37.428Z,99295.91
2022-10-06T23:46:39.147Z,99297.25
2022-10-06T23:48:40.864Z,99301.88
2022-10-06T23:50:42.548Z,99301.31
2022-10-06T23:52:44.301Z,99309.25
2022-10-06T23:54:45.973Z,99308.53
2022-10-06T23:56:47.628Z,99316.44
2022-10-06T23:58:52.171Z,99309.50
